sensor_id;sensor_type;location;lat;lon;timestamp;temperature;humidity
28189;DHT22;15471;51.166;4.470;2022-10-19T00:01:18;10.70;99.90
28189;DHT22;15471;51.166;4.470;2022-10-19T00:03:46;10.70;99.90
28189;DHT22;15471;51.166;4.470;2022-10-19T00:06:39;10.80;99.90
28189;DHT22;15471;51.166;4.470;2022-10-19T00:09:14;10.70;99.90
28189;DHT22;15471;51.166;4.470;2022-10-19T00:11:44;10.70;99.90
28189;DHT22;15471;51.166;4.470;2022-10-19T00:14:13;10.60;99.90
28189;DHT22;15471;51.166;4.470;2022-10-19T00:16:40;10.70;99.90
28189;DHT22;15471;51.166;4.470;2022-10-19T00:19:12;10.60;99.90
28189;DHT22;15471;51.166;4.470;2022-10-19T00:21:38;10.70;99.90
28189;DHT22;15471;51.166;4.470;2022-10-19T00:24:05;10.70;99.90
28189;DHT22;15471;51.166;4.470;2022-10-19T00:26:31;10.70;99.90
28189;DHT22;15471;51.166;4.470;2022-10-19T00:28:57;10.70;99.90
28189;DHT22;15471;51.166;4.470;2022-10-19T00:31:24;10.70;99.90
28189;DHT22;15471;51.166;4.470;2022-10-19T00:33:50;10.70;99.90
28189;DHT22;15471;51.166;4.470;2022-10-19T00:36:19;10.70;99.90
28189;DHT22;15471;51.166;4.470;2022-10-19T00:38:46;10.60;99.90
28189;DHT22;15471;51.166;4.470;2022-10-19T00:41:12;10.70;99.90
28189;DHT22;15471;51.166;4.470;2022-10-19T00:46:23;10.70;99.90
28189;DHT22;15471;51.166;4.470;2022-10-19T00:48:53;10.70;99.90
28189;DHT22;15471;51.166;4.470;2022-10-19T00:51:20;10.50;99.90
28189;DHT22;15471;51.166;4.470;2022-10-19T00:53:47;10.50;99.90
28189;DHT22;15471;51.166;4.470;2022-10-19T00:56:14;10.40;99.90
28189;DHT22;15471;51.166;4.470;2022-10-19T00:58:42;10.50;99.90
28189;DHT22;15471;51.166;4.470;2022-10-19T01:01:10;10.60;99.90
28189;DHT22;15471;51.166;4.470;2022-10-19T01:03:38;10.60;99.90
28189;DHT22;15471;51.166;4.470;2022-10-19T01:06:05;10.60;99.90
28189;DHT22;15471;51.166;4.470;2022-10-19T01:08:31;10.50;99.90
28189;DHT22;15471;51.166;4.470;2022-10-19T01:11:04;10.60;99.90
28189;DHT22;15471;51.166;4.470;2022-10-19T01:21:52;10.50;99.90
28189;DHT22;15471;51.166;4.470;2022-10-19T01:27:15;10.50;99.90
28189;DHT22;15471;51.166;4.470;2022-10-19T01:30:10;10.50;99.90
28189;DHT22;15471;51.166;4.470;2022-10-19T01:32:49;10.50;99.90
28189;DHT22;15471;51.166;4.470;2022-10-19T01:35:26;10.40;99.90
28189;DHT22;15471;51.166;4.470;2022-10-19T01:40:54;10.30;99.90
28189;DHT22;15471;51.166;4.470;2022-10-19T01:43:42;10.30;99.90
28189;DHT22;15471;51.166;4.470;2022-10-19T01:46:23;10.30;99.90
28189;DHT22;15471;51.166;4.470;2022-10-19T01:48:59;10.40;99.90
28189;DHT22;15471;51.166;4.470;2022-10-19T01:51:33;10.40;99.90
28189;DHT22;15471;51.166;4.470;2022-10-19T01:54:03;10.40;99.90
28189;DHT22;15471;51.166;4.470;2022-10-19T01:56:30;10.50;99.90
28189;DHT22;15471;51.166;4.470;2022-10-19T01:58:58;10.50;99.90
28189;DHT22;15471;51.166;4.470;2022-10-19T02:01:27;10.60;99.90
28189;DHT22;15471;51.166;4.470;2022-10-19T02:03:54;10.60;99.90
28189;DHT22;15471;51.166;4.470;2022-10-19T02:06:21;10.60;99.90
28189;DHT22;15471;51.166;4.470;2022-10-19T02:08:49;10.40;99.90
28189;DHT22;15471;51.166;4.470;2022-10-19T02:11:17;10.30;99.90
28189;DHT22;15471;51.166;4.470;2022-10-19T02:13:45;10.40;99.90
28189;DHT22;15471;51.166;4.470;2022-10-19T02:16:24;10.40;99.90
28189;DHT22;15471;51.166;4.470;2022-10-19T02:18:52;10.30;99.90
28189;DHT22;15471;51.166;4.470;2022-10-19T02:21:19;10.30;99.90
28189;DHT22;15471;51.166;4.470;2022-10-19T02:23:45;10.30;99.90
28189;DHT22;15471;51.166;4.470;2022-10-19T02:26:12;10.30;99.90
28189;DHT22;15471;51.166;4.470;2022-10-19T02:28:38;10.40;99.90
28189;DHT22;15471;51.166;4.470;2022-10-19T02:31:04;10.50;99.90
28189;DHT22;15471;51.166;4.470;2022-10-19T02:33:30;10.60;99.90
28189;DHT22;15471;51.166;4.470;2022-10-19T02:35:57;10.40;99.90
28189;DHT22;15471;51.166;4.470;2022-10-19T02:38:24;10.50;99.90
28189;DHT22;15471;51.166;4.470;2022-10-19T02:43:44;10.30;99.90
28189;DHT22;15471;51.166;4.470;2022-10-19T02:49:03;10.20;99.90
28189;DHT22;15471;51.166;4.470;2022-10-19T02:51:35;10.20;99.90
28189;DHT22;15471;51.166;4.470;2022-10-19T02:54:03;10.20;99.90
28189;DHT22;15471;51.166;4.470;2022-10-19T02:56:29;10.20;99.90
28189;DHT22;15471;51.166;4.470;2022-10-19T02:58:56;10.20;99.90
28189;DHT22;15471;51.166;4.470;2022-10-19T03:01:22;10.20;99.90
28189;DHT22;15471;51.166;4.470;2022-10-19T03:03:48;10.30;99.90
28189;DHT22;15471;51.166;4.470;2022-10-19T03:06:14;10.40;99.90
28189;DHT22;15471;51.166;4.470;2022-10-19T03:08:40;10.40;99.90
28189;DHT22;15471;51.166;4.470;2022-10-19T03:11:06;10.30;99.90
28189;DHT22;15471;51.166;4.470;2022-10-19T03:13:32;10.20;99.90
28189;DHT22;15471;51.166;4.470;2022-10-19T03:16:11;10.20;99.90
28189;DHT22;15471;51.166;4.470;2022-10-19T03:18:38;10.20;99.90
28189;DHT22;15471;51.166;4.470;2022-10-19T03:21:07;10.20;99.90
28189;DHT22;15471;51.166;4.470;2022-10-19T03:23:33;10.20;99.90
28189;DHT22;15471;51.166;4.470;2022-10-19T03:26:00;10.20;99.90
28189;DHT22;15471;51.166;4.470;2022-10-19T03:28:26;10.20;99.90
28189;DHT22;15471;51.166;4.470;2022-10-19T03:30:52;10.10;99.90
28189;DHT22;15471;51.166;4.470;2022-10-19T03:33:18;10.10;99.90
28189;DHT22;15471;51.166;4.470;2022-10-19T03:35:44;10.20;99.90
28189;DHT22;15471;51.166;4.470;2022-10-19T03:38:10;10.10;99.90
28189;DHT22;15471;51.166;4.470;2022-10-19T03:40:36;10.20;99.90
28189;DHT22;15471;51.166;4.470;2022-10-19T03:43:02;10.10;99.90
28189;DHT22;15471;51.166;4.470;2022-10-19T03:45:28;10.10;99.90
28189;DHT22;15471;51.166;4.470;2022-10-19T03:47:54;10.10;99.90
28189;DHT22;15471;51.166;4.470;2022-10-19T03:50:20;10.10;99.90
28189;DHT22;15471;51.166;4.470;2022-10-19T03:52:46;10.10;99.90
28189;DHT22;15471;51.166;4.470;2022-10-19T03:55:15;10.10;99.90
28189;DHT22;15471;51.166;4.470;2022-10-19T03:57:41;10.10;99.90
28189;DHT22;15471;51.166;4.470;2022-10-19T04:00:08;10.10;99.90
28189;DHT22;15471;51.166;4.470;2022-10-19T04:02:37;10.00;99.90
28189;DHT22;15471;51.166;4.470;2022-10-19T04:05:03;10.00;99.90
28189;DHT22;15471;51.166;4.470;2022-10-19T04:07:30;10.00;99.90
28189;DHT22;15471;51.166;4.470;2022-10-19T04:09:56;10.00;99.90
28189;DHT22;15471;51.166;4.470;2022-10-19T04:12:22;9.90;99.90
28189;DHT22;15471;51.166;4.470;2022-10-19T04:14:47;9.80;99.90
28189;DHT22;15471;51.166;4.470;2022-10-19T04:17:13;9.70;99.90
28189;DHT22;15471;51.166;4.470;2022-10-19T04:19:39;9.80;99.90
28189;DHT22;15471;51.166;4.470;2022-10-19T04:22:05;9.80;99.90
28189;DHT22;15471;51.166;4.470;2022-10-19T04:24:31;9.80;99.90
28189;DHT22;15471;51.166;4.470;2022-10-19T04:26:57;9.80;99.90
28189;DHT22;15471;51.166;4.470;2022-10-19T04:29:24;9.70;99.90
28189;DHT22;15471;51.166;4.470;2022-10-19T04:31:51;9.70;99.90
28189;DHT22;15471;51.166;4.470;2022-10-19T04:34:18;9.70;99.90
28189;DHT22;15471;51.166;4.470;2022-10-19T04:36:44;9.80;99.90
28189;DHT22;15471;51.166;4.470;2022-10-19T04:39:10;9.70;99.90
28189;DHT22;15471;51.166;4.470;2022-10-19T04:41:37;9.70;99.90
28189;DHT22;15471;51.166;4.470;2022-10-19T04:44:04;9.60;99.90
28189;DHT22;15471;51.166;4.470;2022-10-19T04:46:31;9.60;99.90
28189;DHT22;15471;51.166;4.470;2022-10-19T04:48:58;9.60;99.90
28189;DHT22;15471;51.166;4.470;2022-10-19T04:51:25;9.60;99.90
28189;DHT22;15471;51.166;4.470;2022-10-19T04:53:51;9.60;99.90
28189;DHT22;15471;51.166;4.470;2022-10-19T04:56:20;9.50;99.90
28189;DHT22;15471;51.166;4.470;2022-10-19T04:58:46;9.50;99.90
28189;DHT22;15471;51.166;4.470;2022-10-19T05:01:18;9.50;99.90
28189;DHT22;15471;51.166;4.470;2022-10-19T05:03:44;9.40;99.90
28189;DHT22;15471;51.166;4.470;2022-10-19T05:06:12;9.40;99.90
28189;DHT22;15471;51.166;4.470;2022-10-19T05:08:39;9.40;99.90
28189;DHT22;15471;51.166;4.470;2022-10-19T05:11:11;9.30;99.90
28189;DHT22;15471;51.166;4.470;2022-10-19T05:13:37;9.40;99.90
28189;DHT22;15471;51.166;4.470;2022-10-19T05:16:05;9.40;99.90
28189;DHT22;15471;51.166;4.470;2022-10-19T05:18:31;9.40;99.90
28189;DHT22;15471;51.166;4.470;2022-10-19T05:23:28;9.40;99.90
28189;DHT22;15471;51.166;4.470;2022-10-19T05:26:06;9.40;99.90
28189;DHT22;15471;51.166;4.470;2022-10-19T05:28:32;9.40;99.90
28189;DHT22;15471;51.166;4.470;2022-10-19T05:33:34;9.40;99.90
28189;DHT22;15471;51.166;4.470;2022-10-19T05:36:13;9.40;99.90
28189;DHT22;15471;51.166;4.470;2022-10-19T05:38:40;9.40;99.90
28189;DHT22;15471;51.166;4.470;2022-10-19T05:41:06;9.40;99.90
28189;DHT22;15471;51.166;4.470;2022-10-19T05:43:32;9.50;99.90
28189;DHT22;15471;51.166;4.470;2022-10-19T05:46:07;9.40;99.90
28189;DHT22;15471;51.166;4.470;2022-10-19T05:48:34;9.30;99.90
28189;DHT22;15471;51.166;4.470;2022-10-19T05:51:01;9.20;99.90
28189;DHT22;15471;51.166;4.470;2022-10-19T05:53:30;9.10;99.90
28189;DHT22;15471;51.166;4.470;2022-10-19T05:55:57;9.20;99.90
28189;DHT22;15471;51.166;4.470;2022-10-19T05:58:23;9.20;99.90
28189;DHT22;15471;51.166;4.470;2022-10-19T06:00:57;9.40;99.90
28189;DHT22;15471;51.166;4.470;2022-10-19T06:03:24;9.40;99.90
28189;DHT22;15471;51.166;4.470;2022-10-19T06:05:52;9.40;99.90
28189;DHT22;15471;51.166;4.470;2022-10-19T06:08:19;9.30;99.90
28189;DHT22;15471;51.166;4.470;2022-10-19T06:10:46;9.30;99.90
28189;DHT22;15471;51.166;4.470;2022-10-19T06:13:13;9.20;99.90
28189;DHT22;15471;51.166;4.470;2022-10-19T06:15:39;9.20;99.90
28189;DHT22;15471;51.166;4.470;2022-10-19T06:18:06;9.00;99.90
28189;DHT22;15471;51.166;4.470;2022-10-19T06:20:38;9.00;99.90
28189;DHT22;15471;51.166;4.470;2022-10-19T06:23:04;9.00;99.90
28189;DHT22;15471;51.166;4.470;2022-10-19T06:25:32;9.10;99.90
28189;DHT22;15471;51.166;4.470;2022-10-19T06:27:58;9.20;99.90
28189;DHT22;15471;51.166;4.470;2022-10-19T06:30:25;9.20;99.90
28189;DHT22;15471;51.166;4.470;2022-10-19T06:32:51;9.10;99.90
28189;DHT22;15471;51.166;4.470;2022-10-19T06:35:18;9.20;99.90
28189;DHT22;15471;51.166;4.470;2022-10-19T06:37:44;9.30;99.90
28189;DHT22;15471;51.166;4.470;2022-10-19T06:40:11;9.30;99.90
28189;DHT22;15471;51.166;4.470;2022-10-19T06:42:37;9.40;99.90
28189;DHT22;15471;51.166;4.470;2022-10-19T06:45:07;9.50;99.90
28189;DHT22;15471;51.166;4.470;2022-10-19T06:47:35;9.50;99.90
28189;DHT22;15471;51.166;4.470;2022-10-19T06:50:02;9.60;99.90
28189;DHT22;15471;51.166;4.470;2022-10-19T06:52:29;9.60;99.90
28189;DHT22;15471;51.166;4.470;2022-10-19T06:55:09;9.50;99.90
28189;DHT22;15471;51.166;4.470;2022-10-19T06:57:49;9.60;99.90
28189;DHT22;15471;51.166;4.470;2022-10-19T07:00:15;9.50;99.90
28189;DHT22;15471;51.166;4.470;2022-10-19T07:02:41;9.50;99.90
28189;DHT22;15471;51.166;4.470;2022-10-19T07:05:08;9.60;99.90
28189;DHT22;15471;51.166;4.470;2022-10-19T07:07:34;9.60;99.90
28189;DHT22;15471;51.166;4.470;2022-10-19T07:10:01;9.60;99.90
28189;DHT22;15471;51.166;4.470;2022-10-19T07:12:27;9.60;99.90
28189;DHT22;15471;51.166;4.470;2022-10-19T07:14:53;9.70;99.90
28189;DHT22;15471;51.166;4.470;2022-10-19T07:17:20;9.80;99.90
28189;DHT22;15471;51.166;4.470;2022-10-19T07:19:46;9.90;99.90
28189;DHT22;15471;51.166;4.470;2022-10-19T07:22:12;9.90;99.90
28189;DHT22;15471;51.166;4.470;2022-10-19T07:24:38;9.90;99.90
28189;DHT22;15471;51.166;4.470;2022-10-19T07:27:04;10.00;99.90
28189;DHT22;15471;51.166;4.470;2022-10-19T07:29:30;10.00;99.90
28189;DHT22;15471;51.166;4.470;2022-10-19T07:31:56;10.10;99.90
28189;DHT22;15471;51.166;4.470;2022-10-19T07:34:22;10.20;99.90
28189;DHT22;15471;51.166;4.470;2022-10-19T07:36:48;10.20;99.90
28189;DHT22;15471;51.166;4.470;2022-10-19T07:39:15;10.20;99.90
28189;DHT22;15471;51.166;4.470;2022-10-19T07:41:44;10.30;99.90
28189;DHT22;15471;51.166;4.470;2022-10-19T07:44:13;10.40;99.90
28189;DHT22;15471;51.166;4.470;2022-10-19T07:46:39;10.40;99.90
28189;DHT22;15471;51.166;4.470;2022-10-19T07:49:08;10.50;99.90
28189;DHT22;15471;51.166;4.470;2022-10-19T07:51:36;10.50;99.90
28189;DHT22;15471;51.166;4.470;2022-10-19T07:54:02;10.60;99.90
28189;DHT22;15471;51.166;4.470;2022-10-19T07:56:29;10.70;99.90
28189;DHT22;15471;51.166;4.470;2022-10-19T07:58:57;10.70;99.90
28189;DHT22;15471;51.166;4.470;2022-10-19T08:01:29;10.80;99.90
28189;DHT22;15471;51.166;4.470;2022-10-19T08:03:57;10.90;99.90
28189;DHT22;15471;51.166;4.470;2022-10-19T08:06:24;11.00;99.90
28189;DHT22;15471;51.166;4.470;2022-10-19T08:08:51;11.30;99.90
28189;DHT22;15471;51.166;4.470;2022-10-19T08:11:23;11.40;99.90
28189;DHT22;15471;51.166;4.470;2022-10-19T08:13:50;11.40;99.90
28189;DHT22;15471;51.166;4.470;2022-10-19T08:16:28;11.40;99.90
28189;DHT22;15471;51.166;4.470;2022-10-19T08:19:00;11.50;99.90
28189;DHT22;15471;51.166;4.470;2022-10-19T08:21:27;11.70;99.90
28189;DHT22;15471;51.166;4.470;2022-10-19T08:23:53;11.80;99.90
28189;DHT22;15471;51.166;4.470;2022-10-19T08:26:20;11.90;99.90
28189;DHT22;15471;51.166;4.470;2022-10-19T08:28:46;12.00;99.90
28189;DHT22;15471;51.166;4.470;2022-10-19T08:31:19;12.20;99.90
28189;DHT22;15471;51.166;4.470;2022-10-19T08:33:45;12.50;99.90
28189;DHT22;15471;51.166;4.470;2022-10-19T08:36:12;13.10;99.90
28189;DHT22;15471;51.166;4.470;2022-10-19T08:38:39;13.70;99.90
28189;DHT22;15471;51.166;4.470;2022-10-19T08:46:33;15.30;99.90
28189;DHT22;15471;51.166;4.470;2022-10-19T08:49:01;15.60;99.90
28189;DHT22;15471;51.166;4.470;2022-10-19T08:51:31;15.60;99.90
28189;DHT22;15471;51.166;4.470;2022-10-19T08:54:04;15.90;99.90
28189;DHT22;15471;51.166;4.470;2022-10-19T08:57:00;15.80;99.90
28189;DHT22;15471;51.166;4.470;2022-10-19T08:59:39;15.70;99.90
28189;DHT22;15471;51.166;4.470;2022-10-19T09:02:33;15.90;99.90
28189;DHT22;15471;51.166;4.470;2022-10-19T09:07:56;15.90;99.90
28189;DHT22;15471;51.166;4.470;2022-10-19T09:10:42;16.00;99.90
28189;DHT22;15471;51.166;4.470;2022-10-19T09:15:58;16.00;99.90
28189;DHT22;15471;51.166;4.470;2022-10-19T09:18:30;15.70;99.90
28189;DHT22;15471;51.166;4.470;2022-10-19T09:20:59;15.70;99.90
28189;DHT22;15471;51.166;4.470;2022-10-19T09:23:42;15.90;99.90
28189;DHT22;15471;51.166;4.470;2022-10-19T09:26:18;15.90;99.90
28189;DHT22;15471;51.166;4.470;2022-10-19T09:29:17;16.00;99.90
28189;DHT22;15471;51.166;4.470;2022-10-19T09:31:46;16.20;99.90
28189;DHT22;15471;51.166;4.470;2022-10-19T09:36:54;16.10;99.90
28189;DHT22;15471;51.166;4.470;2022-10-19T09:39:22;16.00;99.90
28189;DHT22;15471;51.166;4.470;2022-10-19T09:42:03;15.80;99.90
28189;DHT22;15471;51.166;4.470;2022-10-19T09:44:30;16.00;99.90
28189;DHT22;15471;51.166;4.470;2022-10-19T09:49:50;16.00;99.90
28189;DHT22;15471;51.166;4.470;2022-10-19T09:55:04;16.10;99.90
28189;DHT22;15471;51.166;4.470;2022-10-19T09:57:31;15.90;99.90
28189;DHT22;15471;51.166;4.470;2022-10-19T09:59:57;15.90;99.90
28189;DHT22;15471;51.166;4.470;2022-10-19T10:02:32;16.00;99.90
28189;DHT22;15471;51.166;4.470;2022-10-19T10:05:14;15.90;99.90
28189;DHT22;15471;51.166;4.470;2022-10-19T10:07:40;15.70;99.90
28189;DHT22;15471;51.166;4.470;2022-10-19T10:10:34;15.70;99.90
28189;DHT22;15471;51.166;4.470;2022-10-19T10:13:02;15.70;99.90
28189;DHT22;15471;51.166;4.470;2022-10-19T10:15:57;15.70;99.90
28189;DHT22;15471;51.166;4.470;2022-10-19T10:18:25;15.70;99.90
28189;DHT22;15471;51.166;4.470;2022-10-19T10:21:25;15.80;99.90
28189;DHT22;15471;51.166;4.470;2022-10-19T10:24:15;15.70;99.90
28189;DHT22;15471;51.166;4.470;2022-10-19T10:26:44;15.60;99.90
28189;DHT22;15471;51.166;4.470;2022-10-19T10:29:31;15.70;99.90
28189;DHT22;15471;51.166;4.470;2022-10-19T10:32:07;15.80;99.90
28189;DHT22;15471;51.166;4.470;2022-10-19T10:34:39;15.80;99.90
28189;DHT22;15471;51.166;4.470;2022-10-19T10:37:12;15.90;99.90
28189;DHT22;15471;51.166;4.470;2022-10-19T10:39:42;15.90;99.90
28189;DHT22;15471;51.166;4.470;2022-10-19T10:42:13;16.00;99.90
28189;DHT22;15471;51.166;4.470;2022-10-19T10:44:48;16.20;99.90
28189;DHT22;15471;51.166;4.470;2022-10-19T10:47:17;16.20;99.90
28189;DHT22;15471;51.166;4.470;2022-10-19T10:50:03;16.20;99.90
28189;DHT22;15471;51.166;4.470;2022-10-19T10:52:31;16.20;99.90
28189;DHT22;15471;51.166;4.470;2022-10-19T10:57:43;16.00;99.90
28189;DHT22;15471;51.166;4.470;2022-10-19T11:00:15;16.00;99.90
28189;DHT22;15471;51.166;4.470;2022-10-19T11:10:50;16.50;99.90
28189;DHT22;15471;51.166;4.470;2022-10-19T11:13:27;16.60;99.90
28189;DHT22;15471;51.166;4.470;2022-10-19T11:15:58;16.60;99.90
28189;DHT22;15471;51.166;4.470;2022-10-19T11:18:33;16.60;99.90
28189;DHT22;15471;51.166;4.470;2022-10-19T11:21:12;16.70;99.90
28189;DHT22;15471;51.166;4.470;2022-10-19T11:26:43;16.70;99.90
28189;DHT22;15471;51.166;4.470;2022-10-19T11:30:16;16.70;99.90
28189;DHT22;15471;51.166;4.470;2022-10-19T11:32:27;16.70;99.90
28189;DHT22;15471;51.166;4.470;2022-10-19T11:43:37;16.80;99.90
28189;DHT22;15471;51.166;4.470;2022-10-19T11:46:13;17.00;99.90
28189;DHT22;15471;51.166;4.470;2022-10-19T11:49:00;17.10;99.90
28189;DHT22;15471;51.166;4.470;2022-10-19T11:57:15;17.20;99.90
28189;DHT22;15471;51.166;4.470;2022-10-19T12:00:17;17.30;99.90
28189;DHT22;15471;51.166;4.470;2022-10-19T12:03:09;17.30;99.90
28189;DHT22;15471;51.166;4.470;2022-10-19T12:12:24;17.30;99.90
28189;DHT22;15471;51.166;4.470;2022-10-19T12:14:51;17.30;99.90
28189;DHT22;15471;51.166;4.470;2022-10-19T12:17:25;17.40;99.90
28189;DHT22;15471;51.166;4.470;2022-10-19T12:19:57;17.30;99.90
28189;DHT22;15471;51.166;4.470;2022-10-19T12:22:29;17.40;99.90
28189;DHT22;15471;51.166;4.470;2022-10-19T12:25:00;17.40;99.90
28189;DHT22;15471;51.166;4.470;2022-10-19T12:27:35;17.40;99.90
28189;DHT22;15471;51.166;4.470;2022-10-19T12:30:19;17.50;99.90
28189;DHT22;15471;51.166;4.470;2022-10-19T12:42:30;17.30;99.90
28189;DHT22;15471;51.166;4.470;2022-10-19T12:53:31;17.20;99.90
28189;DHT22;15471;51.166;4.470;2022-10-19T12:56:01;17.20;99.90
28189;DHT22;15471;51.166;4.470;2022-10-19T13:01:27;17.20;99.90
28189;DHT22;15471;51.166;4.470;2022-10-19T13:04:10;17.10;99.90
28189;DHT22;15471;51.166;4.470;2022-10-19T13:06:49;17.10;99.90
28189;DHT22;15471;51.166;4.470;2022-10-19T13:09:41;17.20;99.90
28189;DHT22;15471;51.166;4.470;2022-10-19T13:25:27;17.50;99.90
28189;DHT22;15471;51.166;4.470;2022-10-19T13:27:55;17.50;99.90
28189;DHT22;15471;51.166;4.470;2022-10-19T13:39:02;17.60;99.90
28189;DHT22;15471;51.166;4.470;2022-10-19T13:46:35;17.60;99.90
28189;DHT22;15471;51.166;4.470;2022-10-19T14:04:15;17.40;99.90
28189;DHT22;15471;51.166;4.470;2022-10-19T14:12:41;17.40;99.90
28189;DHT22;15471;51.166;4.470;2022-10-19T14:15:23;17.50;99.90
28189;DHT22;15471;51.166;4.470;2022-10-19T14:17:50;17.60;99.90
28189;DHT22;15471;51.166;4.470;2022-10-19T14:20:32;17.50;99.90
28189;DHT22;15471;51.166;4.470;2022-10-19T14:23:17;17.60;99.90
28189;DHT22;15471;51.166;4.470;2022-10-19T14:28:29;17.40;99.90
28189;DHT22;15471;51.166;4.470;2022-10-19T14:31:07;17.30;99.90
28189;DHT22;15471;51.166;4.470;2022-10-19T14:33:39;17.30;99.90
28189;DHT22;15471;51.166;4.470;2022-10-19T14:36:24;17.20;99.90
28189;DHT22;15471;51.166;4.470;2022-10-19T14:38:54;17.30;99.90
28189;DHT22;15471;51.166;4.470;2022-10-19T14:41:29;17.20;99.90
28189;DHT22;15471;51.166;4.470;2022-10-19T14:43:57;17.20;99.90
28189;DHT22;15471;51.166;4.470;2022-10-19T14:46:29;17.10;99.90
28189;DHT22;15471;51.166;4.470;2022-10-19T14:49:04;17.20;99.90
28189;DHT22;15471;51.166;4.470;2022-10-19T14:51:50;17.30;99.90
28189;DHT22;15471;51.166;4.470;2022-10-19T14:54:25;17.30;99.90
28189;DHT22;15471;51.166;4.470;2022-10-19T15:00:00;17.50;99.90
28189;DHT22;15471;51.166;4.470;2022-10-19T15:02:36;17.60;99.90
28189;DHT22;15471;51.166;4.470;2022-10-19T15:05:17;17.50;99.90
28189;DHT22;15471;51.166;4.470;2022-10-19T15:07:45;17.30;99.90
28189;DHT22;15471;51.166;4.470;2022-10-19T15:10:44;17.20;99.90
28189;DHT22;15471;51.166;4.470;2022-10-19T15:13:26;17.20;99.90
28189;DHT22;15471;51.166;4.470;2022-10-19T15:15:54;17.20;99.90
28189;DHT22;15471;51.166;4.470;2022-10-19T15:18:23;17.20;99.90
28189;DHT22;15471;51.166;4.470;2022-10-19T15:21:10;17.20;99.90
28189;DHT22;15471;51.166;4.470;2022-10-19T15:23:41;17.10;99.90
28189;DHT22;15471;51.166;4.470;2022-10-19T15:26:27;17.10;99.90
28189;DHT22;15471;51.166;4.470;2022-10-19T15:29:05;17.00;99.90
28189;DHT22;15471;51.166;4.470;2022-10-19T15:31:31;17.00;99.90
28189;DHT22;15471;51.166;4.470;2022-10-19T15:33:59;16.80;99.90
28189;DHT22;15471;51.166;4.470;2022-10-19T15:36:26;16.80;99.90
28189;DHT22;15471;51.166;4.470;2022-10-19T15:39:06;16.80;99.90
28189;DHT22;15471;51.166;4.470;2022-10-19T15:41:35;16.80;99.90
28189;DHT22;15471;51.166;4.470;2022-10-19T15:44:03;16.60;99.90
28189;DHT22;15471;51.166;4.470;2022-10-19T15:46:33;16.50;99.90
28189;DHT22;15471;51.166;4.470;2022-10-19T15:51:51;16.40;99.90
28189;DHT22;15471;51.166;4.470;2022-10-19T15:54:17;16.30;99.90
28189;DHT22;15471;51.166;4.470;2022-10-19T15:56:50;16.20;99.90
28189;DHT22;15471;51.166;4.470;2022-10-19T15:59:19;16.20;99.90
28189;DHT22;15471;51.166;4.470;2022-10-19T16:01:46;16.20;99.90
28189;DHT22;15471;51.166;4.470;2022-10-19T16:04:13;16.10;99.90
28189;DHT22;15471;51.166;4.470;2022-10-19T16:06:41;16.10;99.90
28189;DHT22;15471;51.166;4.470;2022-10-19T16:09:16;16.00;99.90
28189;DHT22;15471;51.166;4.470;2022-10-19T16:11:43;15.90;99.90
28189;DHT22;15471;51.166;4.470;2022-10-19T16:14:09;15.90;99.90
28189;DHT22;15471;51.166;4.470;2022-10-19T16:16:35;15.80;99.90
28189;DHT22;15471;51.166;4.470;2022-10-19T16:19:03;15.80;99.90
28189;DHT22;15471;51.166;4.470;2022-10-19T16:21:32;15.90;99.90
28189;DHT22;15471;51.166;4.470;2022-10-19T16:23:59;15.90;99.90
28189;DHT22;15471;51.166;4.470;2022-10-19T16:26:25;15.80;99.90
28189;DHT22;15471;51.166;4.470;2022-10-19T16:28:53;15.70;99.90
28189;DHT22;15471;51.166;4.470;2022-10-19T16:31:20;15.60;99.90
28189;DHT22;15471;51.166;4.470;2022-10-19T16:33:46;15.60;99.90
28189;DHT22;15471;51.166;4.470;2022-10-19T16:36:12;15.60;99.90
28189;DHT22;15471;51.166;4.470;2022-10-19T16:38:38;15.50;99.90
28189;DHT22;15471;51.166;4.470;2022-10-19T16:41:15;15.50;99.90
28189;DHT22;15471;51.166;4.470;2022-10-19T16:43:44;15.40;99.90
28189;DHT22;15471;51.166;4.470;2022-10-19T16:46:20;15.30;99.90
28189;DHT22;15471;51.166;4.470;2022-10-19T16:48:50;15.30;99.90
28189;DHT22;15471;51.166;4.470;2022-10-19T16:53:54;15.20;99.90
28189;DHT22;15471;51.166;4.470;2022-10-19T16:56:22;15.20;99.90
28189;DHT22;15471;51.166;4.470;2022-10-19T16:58:48;15.10;99.90
28189;DHT22;15471;51.166;4.470;2022-10-19T17:01:17;15.10;99.90
28189;DHT22;15471;51.166;4.470;2022-10-19T17:03:45;14.90;99.90
28189;DHT22;15471;51.166;4.470;2022-10-19T17:06:12;14.90;99.90
28189;DHT22;15471;51.166;4.470;2022-10-19T17:08:38;14.80;99.90
28189;DHT22;15471;51.166;4.470;2022-10-19T17:13:42;14.70;99.90
28189;DHT22;15471;51.166;4.470;2022-10-19T17:16:09;14.70;99.90
28189;DHT22;15471;51.166;4.470;2022-10-19T17:18:39;14.70;99.90
28189;DHT22;15471;51.166;4.470;2022-10-19T17:21:25;14.60;99.90
28189;DHT22;15471;51.166;4.470;2022-10-19T17:23:54;14.60;99.90
28189;DHT22;15471;51.166;4.470;2022-10-19T17:26:31;14.50;99.90
28189;DHT22;15471;51.166;4.470;2022-10-19T17:28:58;14.50;99.90
28189;DHT22;15471;51.166;4.470;2022-10-19T17:31:25;14.50;99.90
28189;DHT22;15471;51.166;4.470;2022-10-19T17:33:52;14.50;99.90
28189;DHT22;15471;51.166;4.470;2022-10-19T17:36:26;14.40;99.90
28189;DHT22;15471;51.166;4.470;2022-10-19T17:38:58;14.30;99.90
28189;DHT22;15471;51.166;4.470;2022-10-19T17:42:36;14.30;99.90
28189;DHT22;15471;51.166;4.470;2022-10-19T17:46:08;14.30;99.90
28189;DHT22;15471;51.166;4.470;2022-10-19T17:48:49;14.20;99.90
28189;DHT22;15471;51.166;4.470;2022-10-19T17:51:22;14.30;99.90
28189;DHT22;15471;51.166;4.470;2022-10-19T17:53:49;14.30;99.90
28189;DHT22;15471;51.166;4.470;2022-10-19T17:56:21;14.30;99.90
28189;DHT22;15471;51.166;4.470;2022-10-19T17:58:48;14.20;99.90
28189;DHT22;15471;51.166;4.470;2022-10-19T18:01:16;14.20;99.90
28189;DHT22;15471;51.166;4.470;2022-10-19T18:03:43;14.10;99.90
28189;DHT22;15471;51.166;4.470;2022-10-19T18:06:15;14.10;99.90
28189;DHT22;15471;51.166;4.470;2022-10-19T18:08:45;14.00;99.90
28189;DHT22;15471;51.166;4.470;2022-10-19T18:11:17;14.00;99.90
28189;DHT22;15471;51.166;4.470;2022-10-19T18:13:44;14.00;99.90
28189;DHT22;15471;51.166;4.470;2022-10-19T18:16:28;13.90;99.90
28189;DHT22;15471;51.166;4.470;2022-10-19T18:18:56;14.00;99.90
28189;DHT22;15471;51.166;4.470;2022-10-19T18:21:25;14.00;99.90
28189;DHT22;15471;51.166;4.470;2022-10-19T18:23:52;14.00;99.90
28189;DHT22;15471;51.166;4.470;2022-10-19T18:26:22;13.90;99.90
28189;DHT22;15471;51.166;4.470;2022-10-19T18:28:50;13.80;99.90
28189;DHT22;15471;51.166;4.470;2022-10-19T18:31:25;13.80;99.90
28189;DHT22;15471;51.166;4.470;2022-10-19T18:34:02;13.70;99.90
28189;DHT22;15471;51.166;4.470;2022-10-19T18:36:29;13.70;99.90
28189;DHT22;15471;51.166;4.470;2022-10-19T18:38:59;13.70;99.90
28189;DHT22;15471;51.166;4.470;2022-10-19T18:41:26;13.70;99.90
28189;DHT22;15471;51.166;4.470;2022-10-19T18:43:55;13.60;99.90